Main page
METAR-TAF:

METAR-TAF

Airports :

Barcelona–El Prat Airport

Barcelona, Spain

latitude: 41-17N, longitude: 002-04E, elevation: 4 m

Current weather observation

The report was made 25 minutes ago, at 20:30 UTC
Wind 8 kt from the Northwest
Temperature 7°C
Humidity 66%
Pressure 1028 hPa
Visibility 10 km or more
Few clouds at a height of 2800 ft

METAR: LEBL 212030Z 32008KT 9999 FEW028 07/01 Q1028 NOSIG

Time: 21:55 (20:55 UTC)

Forecast

The report was made 3 hours and 55 minutes ago, at 17:00 UTC
Forecast valid from 21 at 18 UTC to 22 at 18 UTC
Wind 10 kt from the North/Northwest
Visibility 10 km or more
Scattered clouds at a height of 3000 ft
Probability 40% :
Temporary
from 21 at 18 UTC to 21 at 24 UTC
Wind 4 kt from variable directions
Visibility: 4000 m
Broken clouds at a height of 1000 ft
rain
Becoming
from 22 at 11 UTC to 22 at 14 UTC
Wind 4 kt from variable directions

TAF: LEBL 211700Z 2118/2218 34010KT 9999 SCT030 TX12/2213Z TN02/2206Z PROB40 TEMPO 2118/2124 VRB04KT 4000 RA BKN010 BECMG 2211/2214 VRB04KT

Weather observations and forecasts of more than 4000 airports (METAR and TAF reports).

The available stations are represented by yellow and red dots on the map.

Hover mouse over dot to see the name of the station.

Then click to see weather observations and forecasts.

To change the map : click on the green buttons with a black cross to zoom in, on the green button with a dash to zoom out, or on the green arrows for adjacent maps.


METAR-TAF: